createdAt,value
2023-08-22T00:04:14.618Z,18.81
2023-08-22T00:09:11.436Z,18.80
2023-08-22T00:14:08.178Z,18.67
2023-08-22T00:19:05.046Z,18.63
2023-08-22T00:24:02.212Z,18.88
2023-08-22T00:28:58.941Z,18.84
2023-08-22T00:33:55.703Z,18.78
2023-08-22T00:38:52.405Z,18.84
2023-08-22T00:43:49.224Z,18.86
2023-08-22T00:48:45.923Z,18.66
2023-08-22T00:53:43.176Z,18.83
2023-08-22T00:58:41.078Z,18.80
2023-08-22T01:03:37.947Z,18.70
2023-08-22T01:08:37.706Z,18.47
2023-08-22T01:13:38.538Z,18.59
2023-08-22T01:18:35.975Z,18.24
2023-08-22T01:23:32.844Z,18.39
2023-08-22T01:28:44.044Z,18.35
2023-08-22T01:33:48.307Z,18.33
2023-08-22T01:38:45.263Z,18.12
2023-08-22T01:43:44.486Z,17.94
2023-08-22T01:48:41.209Z,18.13
2023-08-22T01:53:37.981Z,18.06
2023-08-22T01:58:34.722Z,17.89
2023-08-22T02:03:31.488Z,17.85
2023-08-22T02:08:28.323Z,17.90
2023-08-22T02:13:25.190Z,17.84
2023-08-22T02:18:21.916Z,17.81
2023-08-22T02:23:18.661Z,17.74
2023-08-22T02:28:15.493Z,17.60
2023-08-22T02:33:12.452Z,17.74
2023-08-22T02:38:12.412Z,17.66
2023-08-22T02:43:09.216Z,17.66
2023-08-22T02:48:06.663Z,17.63
2023-08-22T02:53:04.239Z,17.55
2023-08-22T02:58:00.968Z,17.47
2023-08-22T03:02:57.976Z,17.54
2023-08-22T03:07:54.810Z,17.34
2023-08-22T03:12:51.771Z,17.46
2023-08-22T03:17:48.554Z,17.38
2023-08-22T03:22:45.323Z,17.27
2023-08-22T03:27:42.348Z,17.37
2023-08-22T03:32:39.509Z,17.44
2023-08-22T03:37:36.747Z,17.43
2023-08-22T03:42:33.539Z,17.46
2023-08-22T03:47:30.250Z,17.46
2023-08-22T03:52:27.152Z,17.33
2023-08-22T03:57:23.885Z,17.45
2023-08-22T04:02:20.908Z,17.49
2023-08-22T04:07:17.753Z,17.59
2023-08-22T04:12:14.468Z,17.48
2023-08-22T04:17:11.179Z,17.61
2023-08-22T04:22:08.218Z,17.59
2023-08-22T04:27:05.171Z,17.59
2023-08-22T04:32:05.034Z,17.61
2023-08-22T04:37:01.796Z,17.59
2023-08-22T04:41:58.557Z,17.61
2023-08-22T04:46:55.302Z,17.60
2023-08-22T04:51:52.030Z,17.57
2023-08-22T04:56:48.787Z,17.57
2023-08-22T05:01:45.619Z,17.41
2023-08-22T05:06:42.416Z,17.48
2023-08-22T05:11:39.215Z,17.39
2023-08-22T05:16:36.931Z,17.55
2023-08-22T05:21:34.147Z,17.44
2023-08-22T05:26:30.917Z,17.51
2023-08-22T05:31:28.020Z,17.64
2023-08-22T05:36:24.843Z,17.68
2023-08-22T05:41:21.919Z,17.46
2023-08-22T05:46:18.711Z,17.76
2023-08-22T05:51:15.470Z,17.72
2023-08-22T05:56:12.197Z,17.92
2023-08-22T06:01:11.123Z,17.75
2023-08-22T06:06:08.014Z,18.07
2023-08-22T06:11:04.791Z,18.18
2023-08-22T06:16:01.575Z,18.19
2023-08-22T06:21:01.756Z,18.37
2023-08-22T06:25:58.538Z,18.41
2023-08-22T06:30:55.519Z,18.48
2023-08-22T06:35:52.378Z,18.43
2023-08-22T06:40:49.085Z,18.66
2023-08-22T06:45:45.969Z,18.90
2023-08-22T06:50:43.254Z,19.04
2023-08-22T06:55:39.993Z,19.18
2023-08-22T07:00:37.128Z,19.31
2023-08-22T07:05:36.190Z,19.48
2023-08-22T07:10:33.595Z,19.52
2023-08-22T07:15:30.777Z,19.73
2023-08-22T07:20:27.493Z,19.88
2023-08-22T07:25:24.232Z,19.86
2023-08-22T07:30:21.000Z,20.15
2023-08-22T07:35:17.763Z,20.22
2023-08-22T07:40:15.403Z,20.35
2023-08-22T07:45:12.247Z,20.48
2023-08-22T07:50:09.450Z,20.52
2023-08-22T07:55:06.602Z,20.62
2023-08-22T08:00:09.413Z,20.95
2023-08-22T08:05:06.956Z,21.22
2023-08-22T08:10:05.470Z,21.64
2023-08-22T08:15:02.325Z,21.80
2023-08-22T08:19:59.442Z,22.14
2023-08-22T08:24:56.213Z,22.31
2023-08-22T08:29:53.741Z,22.73
2023-08-22T08:34:50.459Z,22.64
2023-08-22T08:39:47.364Z,22.83
2023-08-22T08:44:44.257Z,23.03
2023-08-22T08:49:41.331Z,23.07
2023-08-22T08:54:38.272Z,23.36
2023-08-22T08:59:35.133Z,23.88
2023-08-22T09:04:31.898Z,23.89
2023-08-22T09:09:34.585Z,24.12
2023-08-22T09:14:31.563Z,24.24
2023-08-22T09:19:33.381Z,24.28
2023-08-22T09:24:31.075Z,24.18
2023-08-22T09:29:32.237Z,24.19
2023-08-22T09:34:29.693Z,24.52
2023-08-22T09:39:26.820Z,24.48
2023-08-22T09:44:25.439Z,24.53
2023-08-22T09:49:23.438Z,24.53
2023-08-22T09:54:20.554Z,24.63
2023-08-22T09:59:18.893Z,24.72
2023-08-22T10:04:18.603Z,25.07
2023-08-22T10:09:17.469Z,25.11
2023-08-22T10:14:20.338Z,25.41
2023-08-22T10:19:19.593Z,26.05
2023-08-22T10:24:22.576Z,26.32
2023-08-22T10:29:19.659Z,26.66
2023-08-22T10:34:16.396Z,27.29
2023-08-22T10:44:33.877Z,28.22
2023-08-22T10:49:31.993Z,28.63
2023-08-22T10:54:30.684Z,29.15
2023-08-22T10:59:27.410Z,29.19
2023-08-22T11:04:24.435Z,29.38
2023-08-22T11:09:21.678Z,29.62
2023-08-22T11:14:18.404Z,29.87
2023-08-22T11:19:18.407Z,30.16
2023-08-22T11:24:15.201Z,30.49
2023-08-22T11:29:11.942Z,30.45
2023-08-22T11:34:08.656Z,30.48
2023-08-22T11:39:06.301Z,30.70
2023-08-22T11:44:03.019Z,30.93
2023-08-22T11:49:06.142Z,31.15
2023-08-22T11:54:03.175Z,30.94
2023-08-22T11:59:00.570Z,30.93
2023-08-22T12:03:58.270Z,30.44
2023-08-22T12:08:57.357Z,30.62
2023-08-22T12:13:54.718Z,30.47
2023-08-22T12:18:51.671Z,29.87
2023-08-22T12:23:50.730Z,29.99
2023-08-22T12:28:47.630Z,29.76
2023-08-22T12:33:44.468Z,29.83
2023-08-22T12:38:41.211Z,30.03
2023-08-22T12:43:37.976Z,30.35
2023-08-22T12:48:36.848Z,30.50
2023-08-22T12:53:33.588Z,30.65
2023-08-22T12:58:31.661Z,30.56
2023-08-22T13:03:28.608Z,30.44
2023-08-22T13:08:26.711Z,29.95
2023-08-22T13:13:23.617Z,29.55
2023-08-22T13:18:20.403Z,29.64
2023-08-22T13:23:17.143Z,29.93
2023-08-22T13:28:14.195Z,29.57
2023-08-22T13:33:11.126Z,29.88
2023-08-22T13:38:07.916Z,29.74
2023-08-22T13:43:05.091Z,30.05
2023-08-22T13:48:04.676Z,30.21
2023-08-22T13:53:01.749Z,30.30
2023-08-22T13:57:58.612Z,30.31
2023-08-22T14:02:55.580Z,30.47
2023-08-22T14:07:52.311Z,30.52
2023-08-22T14:12:49.010Z,30.72
2023-08-22T14:17:45.943Z,30.90
2023-08-22T14:22:43.499Z,31.09
2023-08-22T14:27:40.549Z,31.22
2023-08-22T14:32:37.277Z,31.33
2023-08-22T14:37:34.847Z,31.32
2023-08-22T14:42:31.558Z,31.52
2023-08-22T14:47:28.298Z,31.70
2023-08-22T14:52:25.084Z,31.76
2023-08-22T14:57:22.128Z,31.90
2023-08-22T15:02:18.865Z,31.85
2023-08-22T15:07:15.579Z,31.88
2023-08-22T15:12:12.327Z,32.02
2023-08-22T15:17:09.070Z,32.10
2023-08-22T15:22:05.964Z,32.12
2023-08-22T15:27:02.762Z,32.23
2023-08-22T15:31:59.514Z,32.26
2023-08-22T15:36:56.244Z,32.05
2023-08-22T15:41:52.969Z,32.13
2023-08-22T15:46:49.753Z,31.99
2023-08-22T15:51:46.636Z,31.82
2023-08-22T15:56:43.415Z,31.88
2023-08-22T16:01:40.148Z,31.94
2023-08-22T16:06:36.968Z,31.95
2023-08-22T16:11:33.683Z,32.17
2023-08-22T16:16:30.422Z,32.25
2023-08-22T16:21:27.189Z,32.08
2023-08-22T16:26:24.258Z,32.13
2023-08-22T16:31:21.476Z,31.99
2023-08-22T16:36:18.282Z,31.88
2023-08-22T16:41:15.060Z,31.65
2023-08-22T16:46:11.863Z,31.47
2023-08-22T16:51:09.333Z,31.33
2023-08-22T16:56:06.061Z,30.99
2023-08-22T17:01:02.806Z,30.46
2023-08-22T17:05:59.617Z,29.87
2023-08-22T17:11:04.761Z,29.45
2023-08-22T17:16:01.652Z,29.19
2023-08-22T17:20:58.476Z,28.87
2023-08-22T17:26:13.201Z,28.51
2023-08-22T17:31:11.684Z,28.32
2023-08-22T17:36:11.146Z,28.14
2023-08-22T17:41:09.648Z,27.89
2023-08-22T17:46:06.570Z,27.62
2023-08-22T17:51:04.696Z,27.38
2023-08-22T17:56:01.443Z,27.03
2023-08-22T18:00:58.188Z,26.90
2023-08-22T18:06:00.307Z,26.78
2023-08-22T18:10:58.868Z,26.61
2023-08-22T18:16:10.056Z,26.47
2023-08-22T18:21:09.694Z,26.15
2023-08-22T18:26:09.064Z,26.04
2023-08-22T18:31:24.706Z,25.93
2023-08-22T18:36:24.543Z,25.76
2023-08-22T18:41:21.704Z,25.59
2023-08-22T18:46:19.345Z,25.40
2023-08-22T18:51:16.135Z,25.26
2023-08-22T18:56:12.897Z,24.94
2023-08-22T19:01:10.001Z,24.78
2023-08-22T19:06:06.792Z,24.64
2023-08-22T19:11:07.018Z,24.46
2023-08-22T19:16:07.330Z,24.31
2023-08-22T19:21:04.135Z,24.10
2023-08-22T19:26:02.196Z,23.97
2023-08-22T19:30:59.673Z,23.85
2023-08-22T19:35:57.186Z,23.67
2023-08-22T19:40:56.386Z,23.33
2023-08-22T19:45:53.233Z,23.21
2023-08-22T19:50:50.430Z,23.19
2023-08-22T19:55:48.113Z,23.11
2023-08-22T20:00:47.408Z,22.96
2023-08-22T20:05:45.734Z,22.84
2023-08-22T20:10:42.498Z,22.73
2023-08-22T20:15:39.325Z,22.49
2023-08-22T20:20:36.057Z,22.54
2023-08-22T20:25:35.688Z,22.42
2023-08-22T20:30:35.136Z,22.31
2023-08-22T20:35:32.121Z,22.15
2023-08-22T20:40:28.884Z,21.94
2023-08-22T20:45:25.777Z,21.97
2023-08-22T20:50:22.604Z,21.67
2023-08-22T20:55:19.322Z,21.71
2023-08-22T21:00:19.386Z,21.61
2023-08-22T21:05:17.213Z,21.58
2023-08-22T21:10:13.997Z,21.47
2023-08-22T21:15:11.149Z,21.42
2023-08-22T21:20:10.369Z,21.18
2023-08-22T21:25:08.145Z,21.20
2023-08-22T21:30:05.364Z,21.06
2023-08-22T21:35:02.143Z,20.98
2023-08-22T21:39:58.892Z,20.91
2023-08-22T21:44:55.661Z,20.82
2023-08-22T21:49:55.820Z,20.72
2023-08-22T21:54:52.567Z,20.65
2023-08-22T21:59:49.288Z,20.62
2023-08-22T22:04:46.035Z,20.56
2023-08-22T22:09:43.239Z,20.41
2023-08-22T22:14:40.033Z,20.38
2023-08-22T22:19:36.812Z,20.25
2023-08-22T22:24:33.597Z,20.26
2023-08-22T22:29:30.340Z,20.15
2023-08-22T22:34:27.171Z,19.95
2023-08-22T22:39:24.259Z,19.97
2023-08-22T22:44:21.014Z,19.94
2023-08-22T22:49:17.801Z,19.89
2023-08-22T22:54:14.540Z,19.85
2023-08-22T22:59:12.393Z,19.78
2023-08-22T23:04:09.229Z,19.62
2023-08-22T23:09:06.192Z,19.70
2023-08-22T23:14:03.001Z,19.43
2023-08-22T23:18:59.737Z,19.64
2023-08-22T23:23:56.497Z,19.67
2023-08-22T23:28:53.549Z,19.65
2023-08-22T23:33:50.601Z,19.55
2023-08-22T23:38:47.325Z,19.53
2023-08-22T23:43:44.114Z,19.53
2023-08-22T23:48:40.840Z,19.54
2023-08-22T23:53:37.562Z,19.63
2023-08-22T23:58:35.929Z,19.70
